Time;durP1;ratioP1;P1;durP2;ratioP2;P2;SDS_P1;SDS_P2;PMS_P1;PMS_P2;Temp;Humidity;BMP_temperature;BMP_pressure;BME280_temperature;BME280_humidity;BME280_pressure;Samples;Min_cycle;Max_cycle;Signal;HPM_P1;HPM_P2
2022/10/26 00:00:13;;;;;;;;;;;29.70;91.30;;;;;;5037151;28;19913;-76
2022/10/26 00:02:39;;;;;;;;;;;29.20;91.90;;;;;;5053416;28;19971;-75
2022/10/26 00:05:06;;;;;;;;;;;28.90;91.70;;;;;;5037627;28;19917;-76
2022/10/26 00:07:33;;;;;;;;;;;29.20;92.20;;;;;;5033491;28;19917;-75
2022/10/26 00:09:59;;;;;;;;;;;29.90;93.30;;;;;;5034196;28;19913;-76
2022/10/26 00:12:26;;;;;;;;;;;29.70;91.40;;;;;;5033654;28;19913;-75
2022/10/26 00:14:53;;;;;;;;;;;29.00;91.10;;;;;;5036509;28;20020;-75
2022/10/26 00:17:19;;;;;;;;;;;28.40;91.90;;;;;;5052316;28;19966;-75
2022/10/26 00:19:46;;;;;;;;;;;28.20;92.60;;;;;;5039162;28;19921;-75
2022/10/26 00:22:13;;;;;;;;;;;28.70;92.60;;;;;;5033259;28;19909;-74
2022/10/26 00:24:39;;;;;;;;;;;29.40;92.50;;;;;;5033878;28;19961;-75
2022/10/26 00:27:06;;;;;;;;;;;30.10;90.90;;;;;;5037878;28;20375;-73
2022/10/26 00:29:33;;;;;;;;;;;30.40;91.90;;;;;;5052111;28;20291;-75
2022/10/26 00:31:59;;;;;;;;;;;31.00;92.10;;;;;;5052261;28;20379;-73
2022/10/26 00:34:26;;;;;;;;;;;31.40;91.60;;;;;;5042587;28;19924;-75
2022/10/26 00:36:53;;;;;;;;;;;31.60;89.90;;;;;;5033207;28;19909;-76
2022/10/26 00:39:19;;;;;;;;;;;31.30;88.00;;;;;;5033658;28;19920;-76
2022/10/26 00:41:46;;;;;;;;;;;30.70;89.60;;;;;;5032872;28;19913;-74
2022/10/26 00:44:31;;;;;;;;;;;30.10;90.10;;;;;;5033687;28;19917;-74
2022/10/26 00:46:57;;;;;;;;;;;29.50;90.00;;;;;;5032905;28;19964;-74
2022/10/26 00:49:24;;;;;;;;;;;29.00;90.20;;;;;;5043438;28;19974;-74
2022/10/26 00:51:52;;;;;;;;;;;28.80;90.90;;;;;;5051718;28;20025;-75
2022/10/26 00:54:20;;;;;;;;;;;28.70;91.40;;;;;;5051561;28;19913;-75
2022/10/26 00:56:49;;;;;;;;;;;28.90;90.60;;;;;;5038661;28;19920;-72
2022/10/26 00:59:16;;;;;;;;;;;29.30;88.20;;;;;;5033508;28;19924;-75
2022/10/26 01:01:46;;;;;;;;;;;29.70;90.30;;;;;;5032645;28;19920;-75
2022/10/26 01:04:13;;;;;;;;;;;30.30;86.60;;;;;;5041174;28;19913;-76
2022/10/26 01:06:40;;;;;;;;;;;30.60;86.20;;;;;;5041116;28;20378;-75
2022/10/26 01:09:07;;;;;;;;;;;31.00;86.60;;;;;;5044736;28;20360;-75
2022/10/26 01:11:34;;;;;;;;;;;30.90;83.50;;;;;;5032616;28;19913;-75
2022/10/26 01:14:02;;;;;;;;;;;30.80;84.70;;;;;;5033116;28;19913;-78
2022/10/26 01:16:28;;;;;;;;;;;30.90;84.10;;;;;;5032558;28;19913;-76
2022/10/26 01:19:13;;;;;;;;;;;31.20;83.20;;;;;;5033268;28;20128;-75
2022/10/26 01:21:54;;;;;;;;;;;31.10;79.90;;;;;;5032709;28;19942;-74
2022/10/26 01:24:24;;;;;;;;;;;30.80;81.00;;;;;;5045646;28;19920;-75
2022/10/26 01:26:56;;;;;;;;;;;31.00;82.40;;;;;;5052325;28;19928;-74
2022/10/26 01:29:32;;;;;;;;;;;31.10;81.60;;;;;;5051403;28;20002;-75
2022/10/26 01:32:07;;;;;;;;;;;31.00;80.50;;;;;;5050926;28;19921;-75
2022/10/26 01:34:35;;;;;;;;;;;30.80;80.90;;;;;;5043482;28;20003;-75
2022/10/26 01:37:10;;;;;;;;;;;30.90;81.20;;;;;;5051247;28;19919;-73
2022/10/26 01:39:48;;;;;;;;;;;30.80;81.90;;;;;;5040531;28;20496;-74
2022/10/26 01:42:15;;;;;;;;;;;30.50;79.80;;;;;;5051932;28;19917;-75
2022/10/26 01:44:44;;;;;;;;;;;30.20;79.40;;;;;;5039575;28;19924;-76
2022/10/26 01:47:15;;;;;;;;;;;30.00;81.50;;;;;;5032120;28;19921;-76
2022/10/26 01:49:46;;;;;;;;;;;29.60;80.40;;;;;;5033009;28;19960;-75
2022/10/26 01:52:12;;;;;;;;;;;29.30;80.50;;;;;;5033154;28;20047;-76
2022/10/26 01:54:39;;;;;;;;;;;28.90;82.10;;;;;;5039925;28;19917;-76
2022/10/26 01:57:08;;;;;;;;;;;28.70;82.10;;;;;;5041149;28;19923;-73
2022/10/26 01:59:43;;;;;;;;;;;28.60;81.90;;;;;;5051292;28;19964;-73
2022/10/26 02:02:18;;;;;;;;;;;28.50;82.00;;;;;;5050770;28;19913;-76
2022/10/26 02:05:13;;;;;;;;;;;28.70;82.70;;;;;;5032830;28;19936;-74
2022/10/26 02:07:40;;;;;;;;;;;28.90;82.20;;;;;;5019549;28;19971;-75
2022/10/26 02:10:29;;;;;;;;;;;28.80;81.80;;;;;;5036561;28;19943;-76
2022/10/26 02:12:59;;;;;;;;;;;28.90;81.70;;;;;;5028073;28;19919;-74
2022/10/26 02:15:35;;;;;;;;;;;28.80;82.40;;;;;;5050726;28;19923;-76
2022/10/26 02:18:04;;;;;;;;;;;28.70;81.50;;;;;;5055356;28;20256;-74
2022/10/26 02:20:34;;;;;;;;;;;28.60;80.90;;;;;;5054806;28;20379;-74
2022/10/26 02:23:02;;;;;;;;;;;28.30;81.70;;;;;;5055410;28;19916;-76
2022/10/26 02:25:31;;;;;;;;;;;28.40;82.40;;;;;;5054204;28;19924;-77
2022/10/26 02:28:01;;;;;;;;;;;28.90;82.10;;;;;;5055114;28;19933;-77
2022/10/26 02:30:28;;;;;;;;;;;29.00;80.60;;;;;;5053438;28;20410;-76
2022/10/26 02:32:56;;;;;;;;;;;29.30;81.40;;;;;;5038142;28;19909;-74
2022/10/26 02:35:28;;;;;;;;;;;29.50;81.10;;;;;;5036378;28;19920;-76
2022/10/26 02:37:56;;;;;;;;;;;29.10;80.80;;;;;;5050547;28;19913;-74
2022/10/26 02:40:24;;;;;;;;;;;29.00;81.30;;;;;;5036860;28;20007;-77
2022/10/26 02:42:52;;;;;;;;;;;28.90;81.60;;;;;;5035308;28;19909;-76
2022/10/26 02:45:22;;;;;;;;;;;28.70;82.40;;;;;;5036020;28;19917;-75
2022/10/26 02:47:49;;;;;;;;;;;28.70;81.70;;;;;;5036639;28;19925;-77
2022/10/26 02:50:17;;;;;;;;;;;28.70;82.90;;;;;;5037682;28;19917;-77
2022/10/26 02:53:02;;;;;;;;;;;28.80;82.60;;;;;;5035095;28;19909;-74
2022/10/26 02:55:34;;;;;;;;;;;28.90;82.60;;;;;;5053354;28;19919;-73
2022/10/26 02:58:06;;;;;;;;;;;29.00;83.30;;;;;;5054658;28;19962;-75
2022/10/26 03:00:33;;;;;;;;;;;28.90;82.20;;;;;;5036099;28;19946;-76
2022/10/26 03:03:02;;;;;;;;;;;29.30;80.90;;;;;;5041868;28;20004;-75
2022/10/26 03:05:31;;;;;;;;;;;29.80;80.90;;;;;;5042599;28;19923;-76
2022/10/26 03:07:58;;;;;;;;;;;30.40;83.20;;;;;;5053292;28;20386;-76
2022/10/26 03:10:26;;;;;;;;;;;30.90;81.60;;;;;;5052810;28;19923;-74
2022/10/26 03:12:52;;;;;;;;;;;30.70;78.60;;;;;;5053592;28;19948;-75
2022/10/26 03:15:19;;;;;;;;;;;29.80;79.20;;;;;;5053630;28;19912;-76
2022/10/26 03:17:45;;;;;;;;;;;29.30;81.20;;;;;;5054568;28;19921;-75
2022/10/26 03:20:13;;;;;;;;;;;29.20;80.90;;;;;;5037546;28;19913;-75
2022/10/26 03:22:39;;;;;;;;;;;28.90;81.20;;;;;;5043440;28;19909;-75
2022/10/26 03:25:06;;;;;;;;;;;28.60;81.80;;;;;;5038179;28;19936;-75
2022/10/26 03:27:34;;;;;;;;;;;28.40;81.80;;;;;;5036172;28;19920;-74
2022/10/26 03:30:00;;;;;;;;;;;28.30;82.40;;;;;;5052551;28;19917;-74
2022/10/26 03:32:30;;;;;;;;;;;28.60;83.60;;;;;;5054354;28;20054;-78
2022/10/26 03:34:56;;;;;;;;;;;28.60;81.10;;;;;;5046928;28;19924;-75
2022/10/26 03:37:23;;;;;;;;;;;28.90;81.40;;;;;;5034388;28;19967;-75
2022/10/26 03:39:50;;;;;;;;;;;29.30;82.70;;;;;;5044036;28;19917;-74
2022/10/26 03:42:16;;;;;;;;;;;29.70;81.20;;;;;;5036972;28;20020;-75
2022/10/26 03:44:43;;;;;;;;;;;30.10;79.00;;;;;;5023104;28;19960;-75
2022/10/26 03:47:10;;;;;;;;;;;30.10;79.90;;;;;;5033913;28;19959;-76
2022/10/26 03:49:36;;;;;;;;;;;30.20;81.00;;;;;;5034944;28;19913;-76
2022/10/26 03:52:03;;;;;;;;;;;30.30;80.10;;;;;;5033864;28;19913;-75
2022/10/26 03:54:30;;;;;;;;;;;30.30;80.10;;;;;;5034634;28;19920;-75
2022/10/26 03:56:57;;;;;;;;;;;29.90;79.80;;;;;;5044775;28;19909;-74
2022/10/26 03:59:23;;;;;;;;;;;29.80;80.10;;;;;;5037121;28;20027;-76
2022/10/26 04:01:50;;;;;;;;;;;29.90;80.30;;;;;;5047892;28;19913;-76
2022/10/26 04:04:17;;;;;;;;;;;30.10;79.50;;;;;;5043539;28;19920;-74
2022/10/26 04:06:43;;;;;;;;;;;30.30;78.70;;;;;;5045536;28;20286;-75
2022/10/26 04:09:10;;;;;;;;;;;30.20;78.90;;;;;;5044327;28;20348;-79
2022/10/26 04:11:36;;;;;;;;;;;30.30;79.10;;;;;;5033520;28;19963;-75
2022/10/26 04:14:03;;;;;;;;;;;30.10;77.70;;;;;;5037775;28;19923;-76
2022/10/26 04:16:30;;;;;;;;;;;29.90;79.30;;;;;;5048058;28;19919;-75
2022/10/26 04:18:56;;;;;;;;;;;30.10;78.80;;;;;;5034185;28;19914;-75
2022/10/26 04:21:23;;;;;;;;;;;30.30;78.50;;;;;;5033273;28;20003;-75
2022/10/26 04:23:50;;;;;;;;;;;30.30;78.30;;;;;;5033782;28;19924;-75
2022/10/26 04:26:16;;;;;;;;;;;30.40;78.70;;;;;;5033320;28;19921;-77
2022/10/26 04:28:43;;;;;;;;;;;30.60;79.70;;;;;;5034144;28;19925;-75
2022/10/26 04:31:10;;;;;;;;;;;31.00;79.40;;;;;;5044303;28;20394;-77
2022/10/26 04:33:36;;;;;;;;;;;31.20;79.60;;;;;;5033965;28;20398;-76
2022/10/26 04:36:03;;;;;;;;;;;31.20;79.00;;;;;;5033248;28;19913;-78
2022/10/26 04:38:30;;;;;;;;;;;31.20;77.80;;;;;;5034213;28;19913;-76
2022/10/26 04:40:56;;;;;;;;;;;31.00;78.00;;;;;;5033261;28;20363;-75
2022/10/26 04:43:23;;;;;;;;;;;31.00;77.90;;;;;;5034605;28;19913;-76
2022/10/26 04:45:53;;;;;;;;;;;31.00;77.20;;;;;;5032806;28;19909;-76
2022/10/26 04:48:20;;;;;;;;;;;30.90;74.90;;;;;;5046046;28;19929;-78
2022/10/26 04:50:47;;;;;;;;;;;30.70;77.90;;;;;;5034744;28;19913;-73
2022/10/26 04:53:14;;;;;;;;;;;30.90;76.20;;;;;;5042743;28;20350;-77
2022/10/26 04:55:40;;;;;;;;;;;30.90;75.80;;;;;;5051806;28;19932;-77
2022/10/26 04:58:07;;;;;;;;;;;30.80;77.30;;;;;;5051134;28;20370;-74
2022/10/26 05:00:34;;;;;;;;;;;30.50;75.60;;;;;;5050606;28;19909;-76
2022/10/26 05:03:05;;;;;;;;;;;30.20;77.00;;;;;;5043171;28;20387;-76
2022/10/26 05:05:33;;;;;;;;;;;29.70;76.20;;;;;;5048471;28;20382;-74
2022/10/26 05:08:00;;;;;;;;;;;29.30;78.20;;;;;;5037437;28;19988;-75
2022/10/26 05:10:27;;;;;;;;;;;29.30;79.00;;;;;;5035300;28;19913;-75
2022/10/26 05:12:54;;;;;;;;;;;29.30;78.30;;;;;;5046636;28;19913;-74
2022/10/26 05:15:21;;;;;;;;;;;29.60;79.70;;;;;;5039496;28;19941;-77
2022/10/26 05:17:53;;;;;;;;;;;29.80;79.50;;;;;;5041998;28;20007;-75
2022/10/26 05:20:20;;;;;;;;;;;30.00;78.70;;;;;;5032842;28;19920;-75
2022/10/26 05:23:07;;;;;;;;;;;30.10;80.30;;;;;;5048354;28;19988;-72
2022/10/26 05:25:34;;;;;;;;;;;30.00;77.00;;;;;;5030429;28;19932;-77
2022/10/26 05:28:03;;;;;;;;;;;29.70;78.30;;;;;;5030215;28;19917;-77
2022/10/26 05:30:30;;;;;;;;;;;29.70;77.90;;;;;;5032646;28;19917;-76
2022/10/26 05:32:57;;;;;;;;;;;29.70;78.60;;;;;;5032431;28;19913;-77
2022/10/26 05:35:25;;;;;;;;;;;29.70;79.10;;;;;;5050406;28;20417;-77
2022/10/26 05:37:52;;;;;;;;;;;29.60;79.30;;;;;;5039652;28;19913;-77
2022/10/26 05:40:19;;;;;;;;;;;29.50;79.30;;;;;;5034654;28;19917;-76
2022/10/26 05:42:46;;;;;;;;;;;29.40;80.70;;;;;;5035156;28;19955;-76
2022/10/26 05:45:13;;;;;;;;;;;29.30;80.20;;;;;;5037327;28;20004;-76
2022/10/26 05:47:44;;;;;;;;;;;29.30;79.90;;;;;;5036489;28;19917;-76
2022/10/26 05:50:11;;;;;;;;;;;29.10;80.30;;;;;;5037117;28;19913;-76
2022/10/26 05:52:42;;;;;;;;;;;28.80;80.70;;;;;;5047926;28;20363;-78
2022/10/26 05:55:12;;;;;;;;;;;28.80;81.30;;;;;;5044348;28;19919;-78
2022/10/26 05:57:39;;;;;;;;;;;28.90;81.40;;;;;;5055290;28;20371;-77
2022/10/26 06:00:14;;;;;;;;;;;29.00;81.10;;;;;;5040004;28;19921;-77
2022/10/26 06:02:41;;;;;;;;;;;29.00;80.40;;;;;;5039769;28;19952;-77
2022/10/26 06:05:10;;;;;;;;;;;28.90;79.80;;;;;;5039699;28;19913;-75
2022/10/26 06:07:36;;;;;;;;;;;28.90;80.80;;;;;;5035961;28;20399;-75
2022/10/26 06:10:04;;;;;;;;;;;28.70;80.00;;;;;;5036371;28;19964;-76
2022/10/26 06:12:30;;;;;;;;;;;28.60;78.40;;;;;;5043428;28;19912;-76
2022/10/26 06:14:57;;;;;;;;;;;28.40;78.40;;;;;;5041351;28;20359;-76
2022/10/26 06:17:43;;;;;;;;;;;28.40;78.90;;;;;;5054356;28;19963;-77
2022/10/26 06:20:16;;;;;;;;;;;28.30;79.00;;;;;;5039081;28;20142;-76
2022/10/26 06:22:50;;;;;;;;;;;28.30;78.70;;;;;;5035732;28;19988;-74
2022/10/26 06:25:35;;;;;;;;;;;28.20;78.60;;;;;;5048774;28;20329;-74
2022/10/26 06:28:19;;;;;;;;;;;27.90;79.20;;;;;;5051982;28;19976;-78
2022/10/26 06:30:46;;;;;;;;;;;27.70;79.80;;;;;;5045017;28;19979;-75
2022/10/26 06:33:14;;;;;;;;;;;27.50;81.40;;;;;;5035922;28;19916;-76
2022/10/26 06:35:41;;;;;;;;;;;27.40;81.30;;;;;;5052390;28;19920;-76
2022/10/26 06:38:16;;;;;;;;;;;27.30;82.00;;;;;;5053414;28;20358;-75
2022/10/26 06:40:44;;;;;;;;;;;27.20;82.60;;;;;;5045092;28;19914;-76
2022/10/26 06:43:40;;;;;;;;;;;27.10;82.60;;;;;;5035323;28;19909;-77
2022/10/26 06:46:22;;;;;;;;;;;27.10;83.40;;;;;;5030225;28;19934;-75
2022/10/26 06:48:48;;;;;;;;;;;27.00;84.40;;;;;;5050069;28;19927;-76
2022/10/26 06:51:16;;;;;;;;;;;26.90;84.00;;;;;;5035156;28;19909;-78
2022/10/26 06:53:55;;;;;;;;;;;26.80;84.20;;;;;;5044060;28;19917;-77
2022/10/26 06:56:23;;;;;;;;;;;26.80;84.50;;;;;;5038479;28;19927;-76
2022/10/26 06:58:51;;;;;;;;;;;26.70;84.40;;;;;;5046752;28;20295;-74
2022/10/26 07:01:18;;;;;;;;;;;26.70;84.90;;;;;;5038145;28;19916;-76
2022/10/26 07:03:45;;;;;;;;;;;26.70;85.30;;;;;;5048529;28;19956;-71
2022/10/26 07:06:12;;;;;;;;;;;26.60;85.50;;;;;;5045144;28;19920;-76
2022/10/26 07:08:38;;;;;;;;;;;26.50;85.00;;;;;;5052818;28;19971;-75
2022/10/26 07:11:05;;;;;;;;;;;26.50;85.20;;;;;;5053947;28;19917;-75
2022/10/26 07:13:32;;;;;;;;;;;26.50;85.70;;;;;;5053711;28;19912;-77
2022/10/26 07:15:58;;;;;;;;;;;26.50;85.80;;;;;;5040236;28;19909;-76
2022/10/26 07:18:25;;;;;;;;;;;26.40;85.60;;;;;;5035578;28;19913;-75
2022/10/26 07:20:52;;;;;;;;;;;26.40;85.00;;;;;;5045419;28;20316;-76
2022/10/26 07:23:18;;;;;;;;;;;26.30;84.50;;;;;;5053704;28;20394;-76
2022/10/26 07:25:45;;;;;;;;;;;26.30;84.80;;;;;;5034247;28;20105;-72
2022/10/26 07:28:11;;;;;;;;;;;26.30;84.90;;;;;;5034834;28;19940;-76
2022/10/26 07:30:39;;;;;;;;;;;26.20;85.10;;;;;;5053836;28;19915;-75
2022/10/26 07:33:10;;;;;;;;;;;26.20;85.10;;;;;;5053578;28;19921;-74
2022/10/26 07:35:37;;;;;;;;;;;26.20;85.30;;;;;;5035061;28;19909;-76
2022/10/26 07:38:04;;;;;;;;;;;26.10;85.60;;;;;;5047109;28;19913;-78
2022/10/26 07:40:30;;;;;;;;;;;26.10;85.50;;;;;;5035420;28;19924;-77
2022/10/26 07:42:58;;;;;;;;;;;26.00;85.50;;;;;;5034423;28;19913;-76
2022/10/26 07:45:25;;;;;;;;;;;26.00;85.80;;;;;;5038232;28;19959;-76
2022/10/26 07:47:52;;;;;;;;;;;26.00;86.30;;;;;;5053727;28;20318;-76
2022/10/26 07:50:19;;;;;;;;;;;25.90;86.50;;;;;;5036609;28;20360;-75
2022/10/26 07:52:46;;;;;;;;;;;25.90;86.50;;;;;;5033951;28;20422;-77
2022/10/26 07:55:12;;;;;;;;;;;25.80;86.20;;;;;;5048031;28;19913;-74
2022/10/26 07:57:39;;;;;;;;;;;25.80;85.30;;;;;;5053998;28;19909;-77
2022/10/26 08:00:07;;;;;;;;;;;25.80;85.50;;;;;;5037622;28;20008;-75
2022/10/26 08:02:34;;;;;;;;;;;25.80;85.10;;;;;;5034047;28;20349;-77
2022/10/26 08:05:01;;;;;;;;;;;25.70;85.90;;;;;;5035953;28;20352;-74
2022/10/26 08:07:27;;;;;;;;;;;25.70;86.00;;;;;;5053554;28;19921;-77
2022/10/26 08:09:54;;;;;;;;;;;25.60;86.40;;;;;;5038995;28;19917;-74
2022/10/26 08:12:21;;;;;;;;;;;25.60;86.80;;;;;;5048043;28;20371;-76
2022/10/26 08:14:47;;;;;;;;;;;25.50;87.00;;;;;;5040089;28;20339;-77
2022/10/26 08:17:14;;;;;;;;;;;25.50;87.10;;;;;;5049993;28;19913;-72
2022/10/26 08:19:41;;;;;;;;;;;25.50;87.50;;;;;;5041047;28;19913;-77
2022/10/26 08:22:08;;;;;;;;;;;25.40;87.30;;;;;;5033227;28;19913;-71
2022/10/26 08:24:35;;;;;;;;;;;25.40;87.90;;;;;;5034015;28;19968;-76
2022/10/26 08:27:02;;;;;;;;;;;25.30;87.80;;;;;;5033432;28;19917;-72
2022/10/26 08:29:28;;;;;;;;;;;25.40;88.20;;;;;;5038117;28;19943;-74
2022/10/26 08:31:55;;;;;;;;;;;25.30;88.10;;;;;;5034249;28;20421;-74
2022/10/26 08:34:22;;;;;;;;;;;25.30;88.50;;;;;;5041930;28;20275;-74
2022/10/26 08:36:49;;;;;;;;;;;25.20;88.70;;;;;;5033087;28;19920;-71
2022/10/26 08:39:16;;;;;;;;;;;25.20;89.20;;;;;;5033892;28;20003;-75
2022/10/26 08:41:43;;;;;;;;;;;25.10;88.40;;;;;;5033205;28;19917;-76
2022/10/26 08:44:22;;;;;;;;;;;25.00;89.00;;;;;;5033909;28;19916;-74
2022/10/26 08:46:52;;;;;;;;;;;25.00;89.40;;;;;;5051026;28;19912;-74
2022/10/26 08:49:24;;;;;;;;;;;25.00;89.20;;;;;;5042903;28;20267;-74
2022/10/26 08:51:53;;;;;;;;;;;24.90;89.30;;;;;;5032537;28;19951;-75
2022/10/26 08:54:20;;;;;;;;;;;24.90;89.60;;;;;;5033844;28;19919;-78
2022/10/26 08:56:48;;;;;;;;;;;24.90;89.70;;;;;;5032954;28;19917;-74
2022/10/26 08:59:30;;;;;;;;;;;24.80;90.00;;;;;;5033884;28;19956;-76
2022/10/26 09:01:57;;;;;;;;;;;24.80;90.20;;;;;;5035626;28;19971;-76
2022/10/26 09:04:28;;;;;;;;;;;24.80;89.90;;;;;;5048431;28;20406;-76
2022/10/26 09:06:57;;;;;;;;;;;24.80;90.00;;;;;;5034713;28;19956;-77
2022/10/26 09:09:30;;;;;;;;;;;24.80;90.10;;;;;;5033692;28;19917;-74
2022/10/26 09:11:59;;;;;;;;;;;24.70;90.20;;;;;;5032591;28;20000;-75
2022/10/26 09:14:28;;;;;;;;;;;24.70;90.00;;;;;;5038113;28;19939;-74
2022/10/26 09:17:07;;;;;;;;;;;24.70;90.20;;;;;;5051178;28;19913;-75
2022/10/26 09:19:47;;;;;;;;;;;24.70;90.00;;;;;;5051566;28;19909;-74
2022/10/26 09:22:23;;;;;;;;;;;24.60;90.00;;;;;;5051239;28;19966;-76
2022/10/26 09:24:54;;;;;;;;;;;24.70;90.00;;;;;;5050786;28;19921;-76
2022/10/26 09:27:28;;;;;;;;;;;24.70;90.00;;;;;;5044261;28;19921;-73
2022/10/26 09:29:57;;;;;;;;;;;24.60;90.10;;;;;;5036653;28;19923;-74
2022/10/26 09:32:33;;;;;;;;;;;24.60;90.20;;;;;;5048456;28;19978;-76
2022/10/26 09:35:05;;;;;;;;;;;24.50;90.30;;;;;;5036834;28;19917;-76
2022/10/26 09:37:33;;;;;;;;;;;24.50;90.10;;;;;;5046585;28;20333;-75
2022/10/26 09:40:07;;;;;;;;;;;24.40;90.30;;;;;;5036558;28;20417;-74
2022/10/26 09:43:12;;;;;;;;;;;24.30;90.70;;;;;;5031917;28;19916;-77
2022/10/26 09:45:44;;;;;;;;;;;24.30;90.20;;;;;;4989583;28;19914;-74
2022/10/26 09:48:11;;;;;;;;;;;24.20;90.40;;;;;;4989000;28;19929;-74
2022/10/26 09:50:39;;;;;;;;;;;24.10;90.40;;;;;;5020769;28;19912;-75
2022/10/26 09:53:06;;;;;;;;;;;24.10;90.60;;;;;;5050025;28;19931;-71
2022/10/26 09:55:34;;;;;;;;;;;24.00;90.30;;;;;;5032641;28;19913;-73
2022/10/26 09:58:02;;;;;;;;;;;24.00;90.50;;;;;;5031536;28;19959;-75
2022/10/26 10:00:29;;;;;;;;;;;23.90;90.40;;;;;;5050414;28;19975;-77
2022/10/26 10:02:57;;;;;;;;;;;23.90;90.50;;;;;;5051286;28;20054;-74
2022/10/26 10:05:23;;;;;;;;;;;23.80;90.80;;;;;;5033084;28;20481;-78
2022/10/26 10:07:50;;;;;;;;;;;23.70;90.80;;;;;;5031089;28;19962;-74
2022/10/26 10:10:21;;;;;;;;;;;23.70;90.70;;;;;;5037902;28;19917;-75
2022/10/26 10:12:51;;;;;;;;;;;23.60;90.80;;;;;;5051432;28;20283;-74
2022/10/26 10:15:19;;;;;;;;;;;23.60;90.80;;;;;;5034426;28;20006;-76
2022/10/26 10:17:54;;;;;;;;;;;23.50;90.80;;;;;;5051095;28;20075;-75
2022/10/26 10:20:30;;;;;;;;;;;23.50;90.90;;;;;;5033348;28;20008;-75
2022/10/26 10:22:57;;;;;;;;;;;23.40;90.90;;;;;;5031300;28;19984;-75
2022/10/26 10:25:37;;;;;;;;;;;23.40;91.10;;;;;;5033380;28;19921;-75
2022/10/26 10:28:24;;;;;;;;;;;23.30;91.40;;;;;;5044483;28;19921;-76
2022/10/26 10:30:53;;;;;;;;;;;23.20;91.30;;;;;;5035121;28;19967;-71
2022/10/26 10:33:20;;;;;;;;;;;23.10;91.50;;;;;;5035887;28;20406;-71
2022/10/26 10:35:48;;;;;;;;;;;22.90;91.60;;;;;;5034747;28;20402;-76
2022/10/26 10:38:20;;;;;;;;;;;22.80;91.90;;;;;;5035384;28;19913;-75
2022/10/26 10:40:57;;;;;;;;;;;22.70;92.00;;;;;;5050574;28;19946;-77
2022/10/26 10:43:24;;;;;;;;;;;22.60;92.10;;;;;;5053151;28;20020;-76
2022/10/26 10:45:52;;;;;;;;;;;22.50;92.20;;;;;;5052947;28;19912;-76
2022/10/26 10:48:37;;;;;;;;;;;22.50;92.30;;;;;;5053241;28;19916;-74
2022/10/26 10:51:11;;;;;;;;;;;22.40;92.40;;;;;;5034570;28;20379;-74
2022/10/26 10:53:44;;;;;;;;;;;22.30;92.70;;;;;;5035367;28;20598;-73
2022/10/26 10:56:29;;;;;;;;;;;22.20;93.30;;;;;;5034633;28;20008;-76
2022/10/26 10:58:56;;;;;;;;;;;22.10;93.40;;;;;;5035620;28;19913;-74
2022/10/26 11:01:26;;;;;;;;;;;21.90;93.70;;;;;;5045457;28;19917;-77
2022/10/26 11:04:16;;;;;;;;;;;21.80;94.10;;;;;;5045354;28;19909;-78
2022/10/26 11:06:43;;;;;;;;;;;21.70;94.20;;;;;;5016752;28;20283;-74
2022/10/26 11:09:12;;;;;;;;;;;21.70;94.40;;;;;;5053126;28;20557;-75
2022/10/26 11:11:41;;;;;;;;;;;21.60;94.40;;;;;;5049783;28;19913;-76
2022/10/26 11:14:24;;;;;;;;;;;21.50;94.50;;;;;;5042677;28;19935;-73
2022/10/26 11:17:11;;;;;;;;;;;21.50;94.90;;;;;;5034415;28;19917;-76
2022/10/26 11:19:49;;;;;;;;;;;21.40;95.10;;;;;;5050337;28;20290;-75
2022/10/26 11:22:19;;;;;;;;;;;21.30;95.40;;;;;;5054094;28;19917;-74
2022/10/26 11:24:49;;;;;;;;;;;21.20;95.30;;;;;;5040858;28;19917;-74
2022/10/26 11:27:15;;;;;;;;;;;21.20;95.30;;;;;;5033995;28;19913;-75
2022/10/26 11:30:01;;;;;;;;;;;21.30;95.10;;;;;;5044350;28;19913;-73
2022/10/26 11:32:45;;;;;;;;;;;21.30;95.20;;;;;;5035234;28;20432;-75
2022/10/26 11:35:18;;;;;;;;;;;21.30;95.20;;;;;;5047123;28;20279;-74
2022/10/26 11:37:50;;;;;;;;;;;21.30;95.30;;;;;;5040973;28;19963;-70
2022/10/26 11:40:51;;;;;;;;;;;21.30;95.50;;;;;;5037995;28;20000;-75
2022/10/26 11:43:18;;;;;;;;;;;21.30;95.40;;;;;;5010888;28;19909;-70
2022/10/26 11:45:59;;;;;;;;;;;21.30;95.20;;;;;;5032331;28;19923;-72
2022/10/26 11:48:47;;;;;;;;;;;21.30;95.30;;;;;;5033425;28;19928;-75
2022/10/26 11:51:19;;;;;;;;;;;21.30;95.20;;;;;;5032418;28;19932;-76
2022/10/26 11:53:47;;;;;;;;;;;21.40;95.10;;;;;;5045664;28;19921;-76
2022/10/26 11:56:17;;;;;;;;;;;21.40;95.20;;;;;;5033989;28;20279;-76
2022/10/26 11:58:45;;;;;;;;;;;21.40;95.20;;;;;;5038390;28;19920;-75
2022/10/26 12:01:13;;;;;;;;;;;21.30;95.30;;;;;;5053017;28;19913;-75
2022/10/26 12:03:51;;;;;;;;;;;21.30;95.40;;;;;;5049047;28;19920;-74
2022/10/26 12:06:24;;;;;;;;;;;21.30;95.70;;;;;;5033992;28;19909;-75
2022/10/26 12:08:57;;;;;;;;;;;21.20;95.80;;;;;;5036774;28;19925;-75
2022/10/26 12:11:42;;;;;;;;;;;21.10;96.00;;;;;;5052769;28;20336;-76
2022/10/26 12:14:18;;;;;;;;;;;21.00;96.30;;;;;;5034704;28;19913;-76
2022/10/26 12:16:44;;;;;;;;;;;20.90;96.20;;;;;;5038831;28;20006;-77
2022/10/26 12:19:18;;;;;;;;;;;20.90;96.60;;;;;;5034529;28;19971;-77
2022/10/26 12:21:47;;;;;;;;;;;20.90;96.70;;;;;;5034934;28;19963;-71
2022/10/26 12:24:22;;;;;;;;;;;20.90;97.00;;;;;;5052517;28;19913;-77
2022/10/26 12:26:55;;;;;;;;;;;20.80;97.00;;;;;;5041833;28;19921;-76
2022/10/26 12:29:24;;;;;;;;;;;20.80;97.50;;;;;;5041087;28;20283;-73
2022/10/26 12:31:51;;;;;;;;;;;20.70;97.70;;;;;;5041264;28;20334;-73
2022/10/26 12:34:24;;;;;;;;;;;20.80;97.70;;;;;;5041381;28;19960;-75
2022/10/26 12:36:54;;;;;;;;;;;20.80;97.80;;;;;;5031543;28;20291;-76
2022/10/26 12:39:29;;;;;;;;;;;20.70;97.70;;;;;;5034030;28;20371;-76
2022/10/26 12:41:57;;;;;;;;;;;20.70;97.90;;;;;;5032991;28;19913;-74
2022/10/26 12:44:36;;;;;;;;;;;20.70;98.20;;;;;;5038882;28;19960;-76
2022/10/26 12:47:04;;;;;;;;;;;20.60;98.40;;;;;;5052389;28;19952;-76
2022/10/26 12:49:49;;;;;;;;;;;20.60;98.50;;;;;;5043578;28;19931;-74
2022/10/26 12:52:24;;;;;;;;;;;20.60;98.60;;;;;;5043051;28;19917;-75
2022/10/26 12:55:06;;;;;;;;;;;20.60;99.20;;;;;;5038357;28;19964;-76
2022/10/26 12:57:53;;;;;;;;;;;20.50;99.70;;;;;;5032305;28;19978;-76
2022/10/26 13:00:24;;;;;;;;;;;20.50;99.40;;;;;;5029161;28;20278;-76
2022/10/26 13:02:58;;;;;;;;;;;20.50;99.00;;;;;;5051450;28;19909;-77
2022/10/26 13:05:43;;;;;;;;;;;20.60;98.90;;;;;;5032612;28;19917;-76
2022/10/26 13:08:10;;;;;;;;;;;20.60;98.90;;;;;;5030722;28;19961;-75
2022/10/26 13:10:39;;;;;;;;;;;20.70;98.50;;;;;;5032109;28;20312;-77
2022/10/26 13:13:07;;;;;;;;;;;20.80;98.00;;;;;;5030552;28;19913;-74
2022/10/26 13:15:51;;;;;;;;;;;20.80;98.10;;;;;;5031781;28;20406;-76
2022/10/26 13:18:19;;;;;;;;;;;20.90;98.00;;;;;;5045434;28;20375;-76
2022/10/26 13:21:04;;;;;;;;;;;20.90;98.00;;;;;;5049685;28;19917;-76
2022/10/26 13:23:32;;;;;;;;;;;20.90;98.00;;;;;;5049868;28;20326;-75
2022/10/26 13:26:24;;;;;;;;;;;20.90;98.10;;;;;;5032029;28;19922;-76
2022/10/26 13:28:52;;;;;;;;;;;20.90;97.90;;;;;;5037468;28;19960;-77
2022/10/26 13:31:30;;;;;;;;;;;20.90;97.80;;;;;;5048905;28;20418;-77
2022/10/26 13:34:00;;;;;;;;;;;20.90;97.80;;;;;;5038506;28;19927;-76
2022/10/26 13:36:27;;;;;;;;;;;20.80;98.00;;;;;;5051318;28;19954;-76
2022/10/26 13:38:54;;;;;;;;;;;20.70;98.20;;;;;;5046497;28;19913;-75
2022/10/26 13:41:31;;;;;;;;;;;20.60;98.30;;;;;;5032444;28;19995;-77
2022/10/26 13:43:59;;;;;;;;;;;20.60;98.40;;;;;;5033135;28;19956;-77
2022/10/26 13:46:26;;;;;;;;;;;20.60;98.60;;;;;;5032425;28;19955;-77
2022/10/26 13:49:07;;;;;;;;;;;20.50;98.60;;;;;;5033064;28;20339;-76
2022/10/26 13:51:42;;;;;;;;;;;20.50;98.80;;;;;;5061497;28;19913;-77
2022/10/26 13:54:15;;;;;;;;;;;20.40;98.90;;;;;;5043832;28;20326;-76
2022/10/26 13:56:45;;;;;;;;;;;20.40;99.00;;;;;;5052335;28;19920;-76
2022/10/26 13:59:14;;;;;;;;;;;20.30;99.10;;;;;;5043893;28;19913;-76
2022/10/26 14:01:41;;;;;;;;;;;20.30;99.10;;;;;;5046265;28;19959;-77
2022/10/26 14:04:17;;;;;;;;;;;20.20;99.20;;;;;;5039399;28;19913;-76
2022/10/26 14:06:51;;;;;;;;;;;20.20;99.20;;;;;;5036049;28;19909;-76
2022/10/26 14:09:18;;;;;;;;;;;20.20;99.30;;;;;;5040122;28;19932;-76
2022/10/26 14:11:47;;;;;;;;;;;20.20;99.60;;;;;;5036107;28;20004;-76
2022/10/26 14:14:16;;;;;;;;;;;20.10;99.40;;;;;;5036801;28;19967;-76
2022/10/26 14:16:45;;;;;;;;;;;20.10;99.60;;;;;;5036152;28;19990;-76
2022/10/26 14:19:31;;;;;;;;;;;20.00;99.70;;;;;;5051385;28;19917;-77
2022/10/26 14:21:58;;;;;;;;;;;20.00;99.80;;;;;;5055599;28;19909;-76
2022/10/26 14:24:29;;;;;;;;;;;19.90;99.90;;;;;;5045401;28;20430;-75
2022/10/26 14:26:55;;;;;;;;;;;19.90;99.90;;;;;;5055134;28;20017;-76
2022/10/26 14:29:23;;;;;;;;;;;19.80;99.90;;;;;;5045838;28;19921;-76
2022/10/26 14:31:50;;;;;;;;;;;19.80;99.90;;;;;;5035706;28;19909;-76
2022/10/26 14:34:21;;;;;;;;;;;19.70;99.90;;;;;;5042881;28;21270;-74